Time;durP1;ratioP1;P1;durP2;ratioP2;P2;SDS_P1;SDS_P2;PMS_P1;PMS_P2;Temp;Humidity;BMP_temperature;BMP_pressure;BME280_temperature;BME280_humidity;BME280_pressure;Samples;Min_cycle;Max_cycle;Signal;HPM_P1;HPM_P2
2021/06/02 11:54:59;;;;;;;1066.60;984.92;;;;;;;;;;5070665;28;20542;-70
2021/06/02 11:57:58;;;;;;;1080.82;996.53;;;;;;;;;;5069401;28;20183;-71
2021/06/02 12:00:28;;;;;;;1075.85;993.40;;;;;;;;;;5047906;28;20176;-75
2021/06/02 12:02:55;;;;;;;1077.47;993.85;;;;;;;;;;5070422;28;20162;-75
2021/06/02 12:05:26;;;;;;;1103.13;999.90;;;;;;;;;;5070393;28;20217;-76
2021/06/02 12:08:24;;;;;;;1132.13;999.90;;;;;;;;;;5070423;28;20172;-76
2021/06/02 12:10:52;;;;;;;1109.35;999.90;;;;;;;;;;5047658;28;20239;-75
2021/06/02 12:13:21;;;;;;;1123.45;999.90;;;;;;;;;;5069150;28;20195;-75
2021/06/02 12:15:48;;;;;;;1117.88;999.90;;;;;;;;;;5070301;28;20168;-64
2021/06/02 12:18:33;;;;;;;1126.97;999.90;;;;;;;;;;5070083;28;20524;-64
2021/06/02 12:21:28;;;;;;;1140.07;999.90;;;;;;;;;;5070171;28;20164;-64
2021/06/02 12:23:57;;;;;;;1145.00;999.90;;;;;;;;;;5056491;28;20180;-64
2021/06/02 12:26:34;;;;;;;1148.35;999.90;;;;;;;;;;5070070;28;20234;-64
2021/06/02 12:29:01;;;;;;;1150.80;999.90;;;;;;;;;;5069983;28;20171;-63
2021/06/02 12:31:27;;;;;;;1172.82;999.90;;;;;;;;;;5069852;28;20192;-68
2021/06/02 12:34:21;;;;;;;1151.60;999.90;;;;;;;;;;5069829;28;20195;-69
2021/06/02 12:37:00;;;;;;;1105.82;999.90;;;;;;;;;;5068966;28;20172;-69
2021/06/02 12:39:33;;;;;;;1148.25;999.90;;;;;;;;;;5069814;28;20248;-68
2021/06/02 12:42:00;;;;;;;1151.82;999.90;;;;;;;;;;5069862;28;20167;-69
2021/06/02 12:44:27;;;;;;;1144.45;999.90;;;;;;;;;;5069591;28;20168;-69
2021/06/02 12:47:10;;;;;;;1131.05;999.90;;;;;;;;;;5069502;28;20174;-69
2021/06/02 12:49:43;;;;;;;1140.28;999.90;;;;;;;;;;5069569;28;20168;-69
2021/06/02 12:52:10;;;;;;;1169.88;999.90;;;;;;;;;;5069471;28;20172;-69
2021/06/02 12:54:37;;;;;;;1178.47;999.90;;;;;;;;;;5069197;28;20567;-69
2021/06/02 12:57:04;;;;;;;1173.93;999.90;;;;;;;;;;5068983;28;20241;-70
2021/06/02 12:59:31;;;;;;;1177.97;999.90;;;;;;;;;;5069301;28;21034;-70
2021/06/02 13:01:58;;;;;;;1150.22;999.90;;;;;;;;;;5069268;28;20195;-70
2021/06/02 13:04:24;;;;;;;1181.65;999.90;;;;;;;;;;5065417;28;20169;-70
2021/06/02 13:06:52;;;;;;;1190.72;999.90;;;;;;;;;;5054708;28;20222;-72
2021/06/02 13:09:19;;;;;;;1197.00;999.90;;;;;;;;;;5054682;28;20211;-70
2021/06/02 13:11:45;;;;;;;1193.32;999.90;;;;;;;;;;5056033;28;20173;-71
2021/06/02 13:14:11;;;;;;;1194.28;999.90;;;;;;;;;;5055830;28;20676;-69
2021/06/02 13:16:48;;;;;;;1198.97;999.90;;;;;;;;;;5055893;28;20223;-70
2021/06/02 13:19:14;;;;;;;1225.40;999.90;;;;;;;;;;5055831;28;20164;-69
2021/06/02 13:21:47;;;;;;;1225.22;999.90;;;;;;;;;;5055748;28;20156;-68
2021/06/02 13:24:17;;;;;;;1211.50;999.90;;;;;;;;;;5055733;28;20169;-68
2021/06/02 13:26:47;;;;;;;1244.78;999.90;;;;;;;;;;5055671;28;20255;-69
2021/06/02 13:29:13;;;;;;;1259.25;999.90;;;;;;;;;;5055624;28;20169;-69
2021/06/02 13:31:47;;;;;;;1238.53;999.90;;;;;;;;;;5055368;28;20188;-69
2021/06/02 13:34:33;;;;;;;1264.05;999.90;;;;;;;;;;5055189;28;20212;-69
2021/06/02 13:37:14;;;;;;;1266.03;999.90;;;;;;;;;;5055485;28;20194;-69
2021/06/02 13:39:41;;;;;;;1289.10;999.90;;;;;;;;;;5055431;28;20171;-70
2021/06/02 13:42:08;;;;;;;1295.25;999.90;;;;;;;;;;5054068;28;20195;-70
2021/06/02 13:44:34;;;;;;;1309.05;999.90;;;;;;;;;;5055293;28;20525;-72
2021/06/02 13:47:00;;;;;;;1298.82;999.90;;;;;;;;;;5054003;28;20177;-71
2021/06/02 13:49:34;;;;;;;1301.95;999.90;;;;;;;;;;5055291;28;20168;-72
2021/06/02 13:52:00;;;;;;;1329.53;999.90;;;;;;;;;;5055209;28;20645;-72
2021/06/02 13:54:29;;;;;;;1315.55;999.90;;;;;;;;;;5054989;28;20224;-72
2021/06/02 13:57:14;;;;;;;1410.07;999.90;;;;;;;;;;5053801;28;20645;-72
2021/06/02 13:59:48;;;;;;;1452.38;999.90;;;;;;;;;;5055015;28;20191;-70
2021/06/02 14:02:16;;;;;;;1463.95;999.90;;;;;;;;;;5054902;28;20164;-70
2021/06/02 14:04:43;;;;;;;1326.68;999.90;;;;;;;;;;5054817;28;20200;-72
2021/06/02 14:07:10;;;;;;;1523.78;999.90;;;;;;;;;;5054924;28;20630;-72
2021/06/02 14:09:37;;;;;;;1367.03;999.90;;;;;;;;;;5054791;28;20168;-74
2021/06/02 14:12:04;;;;;;;1260.70;999.90;;;;;;;;;;5054803;28;20175;-73
2021/06/02 14:14:30;;;;;;;1278.45;999.90;;;;;;;;;;5054734;28;20213;-73
2021/06/02 14:16:56;;;;;;;1290.40;999.90;;;;;;;;;;5053716;28;20172;-73
2021/06/02 14:19:22;;;;;;;1361.78;999.90;;;;;;;;;;5054611;28;20164;-73
2021/06/02 14:21:49;;;;;;;1278.68;999.90;;;;;;;;;;5054628;28;20172;-74
2021/06/02 14:24:15;;;;;;;1331.30;999.90;;;;;;;;;;5054455;28;20191;-73
2021/06/02 14:26:42;;;;;;;1386.75;999.90;;;;;;;;;;5054505;28;20251;-72
2021/06/02 14:29:10;;;;;;;1418.20;999.90;;;;;;;;;;5054530;28;20169;-72
2021/06/02 14:31:36;;;;;;;1425.28;999.90;;;;;;;;;;5054377;28;20570;-72
2021/06/02 14:34:03;;;;;;;1367.93;999.90;;;;;;;;;;5052995;28;20169;-74
2021/06/02 14:36:30;;;;;;;1302.90;999.90;;;;;;;;;;5054393;28;20183;-75
2021/06/02 14:38:56;;;;;;;1446.20;999.90;;;;;;;;;;5054225;28;20251;-74
2021/06/02 14:41:22;;;;;;;1434.00;999.90;;;;;;;;;;5054200;28;20174;-72
2021/06/02 14:43:48;;;;;;;1300.80;999.90;;;;;;;;;;5052807;28;20562;-70
2021/06/02 14:46:14;;;;;;;1449.38;999.90;;;;;;;;;;5054157;28;20168;-71
2021/06/02 14:48:40;;;;;;;1493.35;999.90;;;;;;;;;;5054094;28;20244;-71
2021/06/02 14:51:07;;;;;;;1258.82;999.90;;;;;;;;;;5054129;28;20172;-70
2021/06/02 14:53:33;;;;;;;1282.40;999.90;;;;;;;;;;5053792;28;20307;-72
2021/06/02 14:55:59;;;;;;;1544.80;999.90;;;;;;;;;;5054023;28;20175;-72
2021/06/02 14:58:26;;;;;;;1640.90;999.90;;;;;;;;;;5053975;28;20638;-72
2021/06/02 15:00:52;;;;;;;1425.72;999.90;;;;;;;;;;5052728;28;20176;-72
2021/06/02 15:03:18;;;;;;;1482.85;999.90;;;;;;;;;;5053799;28;20200;-71
2021/06/02 15:05:45;;;;;;;1495.40;999.90;;;;;;;;;;5052528;28;20586;-70
2021/06/02 15:08:11;;;;;;;1517.68;999.90;;;;;;;;;;5053767;28;20180;-71
2021/06/02 15:10:37;;;;;;;1410.50;999.90;;;;;;;;;;5053652;28;20175;-71
2021/06/02 15:13:04;;;;;;;1480.90;999.90;;;;;;;;;;5053610;28;20195;-72
2021/06/02 15:15:30;;;;;;;1526.30;999.90;;;;;;;;;;5053685;28;20176;-71
2021/06/02 15:17:57;;;;;;;1463.05;999.90;;;;;;;;;;5053654;28;20169;-72
2021/06/02 15:20:23;;;;;;;1757.32;999.90;;;;;;;;;;5053653;28;20283;-68
2021/06/02 15:22:50;;;;;;;1720.47;999.90;;;;;;;;;;5053410;28;20179;-66
2021/06/02 15:25:17;;;;;;;1371.30;999.90;;;;;;;;;;5053472;28;20164;-66
2021/06/02 15:27:47;;;;;;;1506.93;999.90;;;;;;;;;;5053229;28;20242;-66
2021/06/02 15:30:17;;;;;;;1551.32;999.90;;;;;;;;;;5053321;28;20188;-66
2021/06/02 15:32:44;;;;;;;1616.65;999.90;;;;;;;;;;5053424;28;20247;-66
2021/06/02 15:35:10;;;;;;;1503.75;999.90;;;;;;;;;;5053272;28;20246;-66
2021/06/02 15:37:36;;;;;;;1662.55;999.90;;;;;;;;;;5053261;28;20170;-66
2021/06/02 15:40:05;;;;;;;1711.82;999.90;;;;;;;;;;5053260;28;20164;-66
2021/06/02 15:42:31;;;;;;;1753.22;999.90;;;;;;;;;;5053324;28;20165;-66
2021/06/02 15:44:57;;;;;;;1628.35;999.90;;;;;;;;;;5051847;28;20262;-66
2021/06/02 15:47:23;;;;;;;1713.95;999.90;;;;;;;;;;5053164;28;20222;-66
2021/06/02 15:49:49;;;;;;;1740.75;999.90;;;;;;;;;;5053193;28;20502;-66
2021/06/02 15:52:16;;;;;;;1627.32;999.90;;;;;;;;;;5052275;28;20175;-66
2021/06/02 15:54:50;;;;;;;1564.82;999.90;;;;;;;;;;5053025;28;20217;-66
2021/06/02 15:57:19;;;;;;;1999.90;999.90;;;;;;;;;;5053069;28;20175;-66
2021/06/02 15:59:46;;;;;;;1999.90;999.90;;;;;;;;;;5053107;28;20168;-66
2021/06/02 16:02:14;;;;;;;1999.90;999.90;;;;;;;;;;5053020;28;20221;-66
2021/06/02 16:04:40;;;;;;;1999.90;999.90;;;;;;;;;;5052984;28;20200;-66
2021/06/02 16:07:06;;;;;;;1999.90;999.90;;;;;;;;;;5053063;28;20211;-66
2021/06/02 16:09:32;;;;;;;1999.90;999.90;;;;;;;;;;5051753;28;20226;-66
2021/06/02 16:11:58;;;;;;;1999.90;999.90;;;;;;;;;;5052999;28;20172;-66
2021/06/02 16:14:24;;;;;;;1999.90;999.90;;;;;;;;;;5052916;28;20255;-66
2021/06/02 16:16:50;;;;;;;1999.90;999.90;;;;;;;;;;5052841;28;20498;-66
2021/06/02 16:19:16;;;;;;;1999.90;999.90;;;;;;;;;;5052863;28;20168;-67
2021/06/02 16:21:42;;;;;;;1999.90;999.90;;;;;;;;;;5052821;28;20187;-68
2021/06/02 16:24:08;;;;;;;1999.90;999.90;;;;;;;;;;5052832;28;20751;-68
2021/06/02 16:26:35;;;;;;;1999.90;999.90;;;;;;;;;;5052872;28;20275;-65
2021/06/02 16:29:01;;;;;;;1999.90;999.90;;;;;;;;;;5052884;28;20197;-65
2021/06/02 16:31:28;;;;;;;1999.90;999.90;;;;;;;;;;5052656;28;20740;-65
2021/06/02 16:33:58;;;;;;;1999.90;999.90;;;;;;;;;;5052796;28;20172;-65
2021/06/02 16:36:25;;;;;;;1999.90;999.90;;;;;;;;;;5052757;28;20168;-65
2021/06/02 16:38:51;;;;;;;1999.90;999.90;;;;;;;;;;5052720;28;20169;-66
2021/06/02 16:41:18;;;;;;;1999.90;999.90;;;;;;;;;;5055645;28;20211;-65
2021/06/02 16:43:44;;;;;;;1999.90;999.90;;;;;;;;;;5056394;28;20697;-65
2021/06/02 16:46:10;;;;;;;1999.90;999.90;;;;;;;;;;5056367;28;20195;-70
2021/06/02 16:48:36;;;;;;;1999.90;999.90;;;;;;;;;;5056386;28;20313;-70
2021/06/02 16:51:02;;;;;;;1999.90;999.90;;;;;;;;;;5056388;28;20247;-69
2021/06/02 16:53:33;;;;;;;1999.90;999.90;;;;;;;;;;5056180;28;20303;-69
2021/06/02 16:56:00;;;;;;;1999.90;999.90;;;;;;;;;;5056877;28;20176;-69
2021/06/02 16:58:27;;;;;;;1999.90;999.90;;;;;;;;;;5056158;28;20174;-68
2021/06/02 17:00:53;;;;;;;1999.90;999.90;;;;;;;;;;5056273;28;20226;-67
2021/06/02 17:03:19;;;;;;;1999.90;999.90;;;;;;;;;;5056064;28;20241;-66
2021/06/02 17:05:48;;;;;;;1999.90;999.90;;;;;;;;;;5056073;28;20160;-66
2021/06/02 17:08:15;;;;;;;1999.90;999.90;;;;;;;;;;5056051;28;20222;-66
2021/06/02 17:10:41;;;;;;;1999.90;999.90;;;;;;;;;;5055921;28;20169;-65
2021/06/02 17:13:07;;;;;;;1999.90;999.90;;;;;;;;;;5055845;28;20169;-65
2021/06/02 17:15:33;;;;;;;1999.90;999.90;;;;;;;;;;5055884;28;20634;-66
2021/06/02 17:18:00;;;;;;;1999.90;999.90;;;;;;;;;;5055984;28;20169;-65
2021/06/02 17:20:29;;;;;;;1999.90;999.90;;;;;;;;;;5055762;28;20222;-65
2021/06/02 17:22:56;;;;;;;1999.90;999.90;;;;;;;;;;5055718;28;20176;-67
2021/06/02 17:25:22;;;;;;;1999.90;999.90;;;;;;;;;;5055708;28;20165;-68
2021/06/02 17:27:49;;;;;;;1999.90;999.90;;;;;;;;;;5054451;28;20198;-68
2021/06/02 17:30:16;;;;;;;1999.90;999.90;;;;;;;;;;5055581;28;20184;-68
2021/06/02 17:32:43;;;;;;;1999.90;999.90;;;;;;;;;;5055537;28;20173;-68
2021/06/02 17:35:09;;;;;;;1999.90;999.90;;;;;;;;;;5055611;28;20164;-68
2021/06/02 17:37:36;;;;;;;1999.90;999.90;;;;;;;;;;5055474;28;20187;-68
2021/06/02 17:40:04;;;;;;;1999.90;999.90;;;;;;;;;;5055411;28;20248;-68
2021/06/02 17:42:30;;;;;;;1999.90;999.90;;;;;;;;;;5055140;28;20536;-68
2021/06/02 17:44:56;;;;;;;1999.90;999.90;;;;;;;;;;5054888;28;20196;-68
2021/06/02 17:47:25;;;;;;;1999.90;999.90;;;;;;;;;;5055060;28;20263;-68
2021/06/02 17:49:53;;;;;;;1999.90;999.90;;;;;;;;;;5055193;28;20251;-68
2021/06/02 17:52:23;;;;;;;1999.90;999.90;;;;;;;;;;5055159;28;20168;-68
2021/06/02 17:54:50;;;;;;;1999.90;999.90;;;;;;;;;;5054979;28;20220;-68
2021/06/02 17:57:16;;;;;;;1999.90;999.90;;;;;;;;;;5053841;28;20169;-68
2021/06/02 17:59:42;;;;;;;1999.90;999.90;;;;;;;;;;5055030;28;20255;-68
2021/06/02 18:02:08;;;;;;;1999.90;999.90;;;;;;;;;;5054993;28;20177;-68
2021/06/02 18:04:35;;;;;;;1999.90;999.90;;;;;;;;;;5054967;28;20249;-67
2021/06/02 18:07:02;;;;;;;1999.90;999.90;;;;;;;;;;5054985;28;20172;-68
2021/06/02 18:09:31;;;;;;;1999.90;999.90;;;;;;;;;;5054917;28;20165;-68
2021/06/02 18:11:57;;;;;;;1999.90;999.90;;;;;;;;;;5054901;28;20164;-68
2021/06/02 18:14:23;;;;;;;1999.90;999.90;;;;;;;;;;5054855;28;20660;-68
2021/06/02 18:16:50;;;;;;;1999.90;999.90;;;;;;;;;;5053535;28;20176;-68
2021/06/02 18:19:17;;;;;;;1999.90;999.90;;;;;;;;;;5054736;28;20172;-68
2021/06/02 18:21:48;;;;;;;1999.90;999.90;;;;;;;;;;5054603;28;20180;-68
2021/06/02 18:24:15;;;;;;;1999.90;999.90;;;;;;;;;;5054310;28;20203;-68
2021/06/02 18:26:42;;;;;;;1999.90;999.90;;;;;;;;;;5053320;28;20633;-67
2021/06/02 18:29:08;;;;;;;1999.90;999.90;;;;;;;;;;5054592;28;20243;-68
2021/06/02 18:31:34;;;;;;;1999.90;999.90;;;;;;;;;;5054383;28;20703;-68
2021/06/02 18:34:03;;;;;;;1999.90;999.90;;;;;;;;;;5054387;28;20172;-68
2021/06/02 18:36:29;;;;;;;1999.90;999.90;;;;;;;;;;5054379;28;20172;-68
2021/06/02 18:38:55;;;;;;;1999.90;999.90;;;;;;;;;;5054371;28;20173;-68
2021/06/02 18:41:21;;;;;;;1999.90;999.90;;;;;;;;;;5054328;28;20176;-67
2021/06/02 18:43:47;;;;;;;1999.90;999.90;;;;;;;;;;5054298;28;20192;-68
2021/06/02 18:46:13;;;;;;;1999.90;999.90;;;;;;;;;;5054143;28;20188;-68
2021/06/02 18:48:40;;;;;;;1999.90;999.90;;;;;;;;;;5054220;28;20529;-67
2021/06/02 18:51:06;;;;;;;1999.90;999.90;;;;;;;;;;5052869;28;20173;-68
2021/06/02 18:53:33;;;;;;;1999.90;999.90;;;;;;;;;;5053887;28;20228;-68
2021/06/02 18:55:59;;;;;;;1999.90;999.90;;;;;;;;;;5054071;28;20173;-67
2021/06/02 18:58:25;;;;;;;1999.90;999.90;;;;;;;;;;5053975;28;20172;-68
2021/06/02 19:00:53;;;;;;;1999.90;999.90;;;;;;;;;;5053973;28;20183;-68
2021/06/02 19:03:19;;;;;;;1999.90;999.90;;;;;;;;;;5053317;28;20197;-68
2021/06/02 19:05:45;;;;;;;1999.90;999.90;;;;;;;;;;5053811;28;20172;-68
2021/06/02 19:08:14;;;;;;;1999.90;999.90;;;;;;;;;;5053898;28;20173;-68
2021/06/02 19:10:44;;;;;;;1999.90;999.90;;;;;;;;;;5053792;28;20169;-67
2021/06/02 19:13:10;;;;;;;1989.20;999.90;;;;;;;;;;5053712;28;20164;-65
2021/06/02 19:15:36;;;;;;;1881.75;999.90;;;;;;;;;;5053689;28;20199;-68
2021/06/02 19:18:02;;;;;;;1824.53;999.90;;;;;;;;;;5053608;28;20169;-68
2021/06/02 19:20:28;;;;;;;1726.85;999.90;;;;;;;;;;5052355;28;20183;-66
2021/06/02 19:22:54;;;;;;;1650.03;999.90;;;;;;;;;;5053420;28;20170;-66
